Time;durP1;ratioP1;P1;durP2;ratioP2;P2;SDS_P1;SDS_P2;PMS_P1;PMS_P2;Temp;Humidity;BMP_temperature;BMP_pressure;BME280_temperature;BME280_humidity;BME280_pressure;Samples;Min_cycle;Max_cycle;Signal;HPM_P1;HPM_P2
2022/04/14 00:01:52;;;;;;;7.63;4.30;;;;;;;12.80;75.90;98070.16;4974827;28;20218;-67
2022/04/14 00:04:19;;;;;;;8.03;4.40;;;;;;;12.73;76.00;98072.94;4974848;28;20211;-67
2022/04/14 00:06:45;;;;;;;9.03;4.77;;;;;;;12.72;75.75;98070.50;4974345;28;20229;-67
2022/04/14 00:09:11;;;;;;;9.37;4.20;;;;;;;12.68;76.16;98064.84;4974992;28;20218;-67
2022/04/14 00:11:38;;;;;;;4.90;4.10;;;;;;;12.65;76.77;98067.13;4974713;28;20213;-68
2022/04/14 00:14:05;;;;;;;6.97;4.20;;;;;;;12.59;77.40;98060.06;4975167;28;20262;-68
2022/04/14 00:16:31;;;;;;;8.27;4.27;;;;;;;12.57;77.41;98062.16;4974639;28;20226;-68
2022/04/14 00:18:57;;;;;;;6.33;4.33;;;;;;;12.53;76.82;98074.34;4974597;28;20686;-68
2022/04/14 00:21:24;;;;;;;4.97;4.03;;;;;;;12.48;77.40;98067.00;4974633;28;20211;-68
2022/04/14 00:23:50;;;;;;;7.10;3.80;;;;;;;12.43;77.50;98071.44;4975158;28;20248;-68
2022/04/14 00:26:17;;;;;;;5.70;4.47;;;;;;;12.43;77.06;98074.88;4974241;28;20215;-68
2022/04/14 00:28:43;;;;;;;6.50;3.97;;;;;;;12.41;77.55;98069.00;4974484;28;20601;-68
2022/04/14 00:31:09;;;;;;;10.10;4.50;;;;;;;12.39;77.96;98076.38;4974562;28;20211;-68
2022/04/14 00:33:36;;;;;;;6.13;4.00;;;;;;;12.44;77.47;98078.38;4974529;28;20298;-68
2022/04/14 00:36:02;;;;;;;8.17;4.00;;;;;;;12.39;77.56;98081.72;4974513;28;20222;-68
2022/04/14 00:38:28;;;;;;;8.43;4.33;;;;;;;12.37;77.80;98081.16;4974395;28;20235;-68
2022/04/14 00:40:55;;;;;;;5.93;3.60;;;;;;;12.29;78.98;98076.16;4974717;28;20223;-68
2022/04/14 00:43:29;;;;;;;5.80;3.40;;;;;;;12.25;79.46;98087.50;4974456;28;20313;-68
2022/04/14 00:45:55;;;;;;;6.10;3.80;;;;;;;12.24;79.18;98085.84;4974223;28;20655;-68
2022/04/14 00:48:22;;;;;;;5.60;3.50;;;;;;;12.13;80.00;98087.47;4974366;28;20226;-68
2022/04/14 00:50:48;;;;;;;7.13;3.90;;;;;;;12.13;79.96;98084.81;4974639;28;20229;-68
2022/04/14 00:53:15;;;;;;;5.17;3.93;;;;;;;12.11;80.48;98091.41;4974087;28;20203;-68
2022/04/14 00:55:41;;;;;;;7.30;4.63;;;;;;;12.08;80.86;98083.88;4974400;28;20217;-68
2022/04/14 00:58:07;;;;;;;9.90;4.23;;;;;;;12.06;80.92;98086.75;4974222;28;20233;-68
2022/04/14 01:00:34;;;;;;;5.13;4.17;;;;;;;11.95;81.67;98084.88;4974385;28;20575;-68
2022/04/14 01:03:00;;;;;;;9.27;4.20;;;;;;;11.97;82.01;98090.78;4974127;28;20782;-68
2022/04/14 01:05:28;;;;;;;11.43;5.00;;;;;;;11.93;81.97;98089.59;4977931;28;20209;-68
2022/04/14 01:07:57;;;;;;;10.67;4.83;;;;;;;11.88;82.50;98081.47;4977792;28;20221;-68
2022/04/14 01:10:24;;;;;;;5.87;4.17;;;;;;;11.82;83.01;98077.06;4977841;28;20216;-67
2022/04/14 01:12:50;;;;;;;6.60;4.30;;;;;;;11.83;83.19;98078.69;4977773;28;20695;-68
2022/04/14 01:15:16;;;;;;;8.90;3.80;;;;;;;11.77;83.58;98078.78;4977979;28;20224;-68
2022/04/14 01:17:43;;;;;;;5.90;3.93;;;;;;;11.80;83.01;98095.09;4977220;28;20699;-68
2022/04/14 01:20:11;;;;;;;6.47;4.13;;;;;;;11.77;83.21;98090.25;4977683;28;20216;-68
2022/04/14 01:22:46;;;;;;;7.70;4.00;;;;;;;11.79;83.27;98096.16;4977618;28;20206;-68
2022/04/14 01:25:13;;;;;;;10.13;4.60;;;;;;;11.74;83.18;98101.34;4977571;28;20217;-68
2022/04/14 01:27:39;;;;;;;5.60;3.83;;;;;;;11.72;83.40;98100.78;4976006;28;20729;-68
2022/04/14 01:30:06;;;;;;;7.60;4.20;;;;;;;11.73;83.11;98102.38;4977337;28;20209;-68
2022/04/14 01:32:32;;;;;;;5.27;4.07;;;;;;;11.74;82.89;98098.69;4977473;28;20211;-68
2022/04/14 01:34:59;;;;;;;8.17;4.10;;;;;;;11.72;83.87;98103.44;4977329;28;20208;-68
2022/04/14 01:37:25;;;;;;;6.40;4.30;;;;;;;11.69;84.16;98103.03;4977178;28;20236;-68
2022/04/14 01:39:51;;;;;;;9.33;4.60;;;;;;;11.66;84.33;98108.84;4977210;28;20258;-68
2022/04/14 01:42:18;;;;;;;5.17;4.50;;;;;;;11.64;84.49;98101.06;4976949;28;20248;-68
2022/04/14 01:44:44;;;;;;;6.47;4.77;;;;;;;11.65;83.95;98112.50;4977438;28;20237;-68
2022/04/14 01:47:11;;;;;;;8.87;4.60;;;;;;;11.62;84.26;98107.66;4976712;28;20592;-68
2022/04/14 01:49:37;;;;;;;7.33;4.10;;;;;;;11.61;84.13;98112.16;4976789;28;20210;-67
2022/04/14 01:52:03;;;;;;;9.37;4.77;;;;;;;11.62;84.49;98108.44;4976719;28;20217;-69
2022/04/14 01:54:30;;;;;;;6.53;4.43;;;;;;;11.62;83.63;98113.78;4977027;28;20213;-67
2022/04/14 01:56:56;;;;;;;8.03;4.30;;;;;;;11.70;82.33;98116.13;4976489;28;20707;-68
2022/04/14 01:59:23;;;;;;;9.07;4.37;;;;;;;11.69;82.75;98122.50;4976901;28;20212;-68
2022/04/14 02:01:49;;;;;;;6.03;4.30;;;;;;;11.54;84.20;98129.22;4976521;28;20214;-68
2022/04/14 02:04:15;;;;;;;9.43;4.57;;;;;;;11.46;84.18;98127.69;4976555;28;20222;-68
2022/04/14 02:06:42;;;;;;;8.03;5.00;;;;;;;11.44;84.93;98135.06;4977049;28;20580;-68
2022/04/14 02:09:09;;;;;;;9.37;4.40;;;;;;;11.37;86.13;98134.34;4976985;28;20302;-68
2022/04/14 02:11:35;;;;;;;5.77;4.43;;;;;;;11.39;85.23;98129.59;4976436;28;20212;-69
2022/04/14 02:14:01;;;;;;;6.70;4.30;;;;;;;11.38;85.18;98132.47;4976220;28;20215;-69
2022/04/14 02:16:27;;;;;;;7.20;4.47;;;;;;;11.36;85.45;98138.03;4976204;28;20208;-68
2022/04/14 02:18:54;;;;;;;6.80;4.43;;;;;;;11.30;85.70;98135.44;4976192;28;20228;-68
2022/04/14 02:21:20;;;;;;;11.43;4.60;;;;;;;11.27;85.98;98139.38;4976490;28;20218;-67
2022/04/14 02:23:47;;;;;;;5.97;3.73;;;;;;;11.22;85.37;98149.03;4976140;28;20672;-68
2022/04/14 02:26:13;;;;;;;6.73;4.50;;;;;;;11.20;85.82;98146.59;4976334;28;20563;-68
2022/04/14 02:28:40;;;;;;;6.40;4.30;;;;;;;11.17;86.18;98146.22;4976311;28;20230;-67
2022/04/14 02:31:06;;;;;;;7.47;4.40;;;;;;;11.18;86.21;98148.66;4976247;28;20219;-68
2022/04/14 02:33:32;;;;;;;7.07;4.50;;;;;;;11.16;86.43;98145.41;4976222;28;20207;-68
2022/04/14 02:35:59;;;;;;;6.17;4.30;;;;;;;11.15;87.27;98149.09;4976145;28;20214;-68
2022/04/14 02:38:25;;;;;;;8.37;4.60;;;;;;;11.16;86.68;98149.94;4975958;28;20243;-68
2022/04/14 02:40:51;;;;;;;8.70;4.87;;;;;;;11.11;87.15;98150.56;4975824;28;20303;-68
2022/04/14 02:43:18;;;;;;;9.47;4.87;;;;;;;11.10;87.37;98149.75;4976060;28;20218;-68
2022/04/14 02:45:44;;;;;;;10.97;5.20;;;;;;;11.08;88.17;98148.34;4976003;28;20212;-68
2022/04/14 02:48:10;;;;;;;7.87;4.87;;;;;;;11.09;88.32;98150.00;4975885;28;20223;-68
2022/04/14 02:50:38;;;;;;;8.47;4.40;;;;;;;11.02;88.36;98152.72;4975926;28;20275;-68
2022/04/14 02:53:04;;;;;;;8.30;5.10;;;;;;;11.03;88.60;98148.19;4975901;28;20589;-68
2022/04/14 02:55:31;;;;;;;8.03;4.73;;;;;;;11.05;88.41;98148.78;4975730;28;20693;-68
2022/04/14 02:57:57;;;;;;;6.73;4.77;;;;;;;10.99;89.45;98157.63;4975171;28;20654;-68
2022/04/14 03:00:24;;;;;;;5.93;4.80;;;;;;;10.98;89.21;98148.84;4976025;28;20585;-68
2022/04/14 03:02:50;;;;;;;6.33;4.50;;;;;;;10.98;88.85;98158.66;4975611;28;20226;-68
2022/04/14 03:05:16;;;;;;;9.50;4.73;;;;;;;11.05;89.06;98154.13;4975608;28;20574;-68
2022/04/14 03:07:43;;;;;;;6.93;5.37;;;;;;;11.03;89.17;98150.84;4975430;28;20561;-68
2022/04/14 03:10:10;;;;;;;7.27;4.83;;;;;;;11.03;89.56;98164.16;4974941;28;20212;-68
2022/04/14 03:12:40;;;;;;;7.83;5.40;;;;;;;11.05;89.76;98162.09;4975546;28;20208;-68
2022/04/14 03:15:07;;;;;;;8.20;5.30;;;;;;;11.03;89.90;98159.66;4975434;28;20213;-68
2022/04/14 03:17:34;;;;;;;9.17;6.07;;;;;;;10.98;90.74;98157.88;4974805;28;20228;-68
2022/04/14 03:20:00;;;;;;;9.93;6.07;;;;;;;10.98;91.63;98158.66;4974978;28;20211;-68
2022/04/14 03:22:26;;;;;;;8.83;6.00;;;;;;;10.96;91.87;98161.53;4975066;28;20214;-67
2022/04/14 03:24:56;;;;;;;10.70;6.17;;;;;;;10.90;92.01;98162.44;4974774;28;20208;-68
2022/04/14 03:27:22;;;;;;;11.40;5.93;;;;;;;10.85;92.16;98169.41;4974470;28;20254;-68
2022/04/14 03:29:48;;;;;;;9.07;5.93;;;;;;;10.76;92.99;98166.22;4975181;28;20210;-67
2022/04/14 03:32:15;;;;;;;7.83;5.77;;;;;;;10.71;93.40;98165.25;4974693;28;20214;-68
2022/04/14 03:34:41;;;;;;;9.57;6.13;;;;;;;10.69;93.69;98164.66;4974792;28;20683;-68
2022/04/14 03:37:07;;;;;;;10.37;6.10;;;;;;;10.79;92.97;98157.84;4974580;28;20224;-68
2022/04/14 03:39:34;;;;;;;8.50;6.00;;;;;;;10.81;92.76;98174.38;4974760;28;20212;-70
2022/04/14 03:42:00;;;;;;;10.30;6.57;;;;;;;10.73;93.33;98177.28;4974529;28;20231;-68
2022/04/14 03:44:26;;;;;;;8.60;6.43;;;;;;;10.57;94.28;98174.34;4974815;28;20208;-68
2022/04/14 03:46:53;;;;;;;9.93;6.50;;;;;;;10.54;94.95;98180.13;4974851;28;20236;-68
2022/04/14 03:49:20;;;;;;;10.53;6.13;;;;;;;10.55;94.94;98176.44;4974916;28;20282;-68
2022/04/14 03:51:46;;;;;;;12.40;6.30;;;;;;;10.51;94.76;98184.00;4974898;28;20230;-67
2022/04/14 03:54:13;;;;;;;9.67;6.13;;;;;;;10.50;93.74;98173.59;4974810;28;20208;-67
2022/04/14 03:56:39;;;;;;;9.83;6.40;;;;;;;10.47;94.46;98176.69;4974747;28;20208;-68
2022/04/14 03:59:05;;;;;;;8.53;5.10;;;;;;;10.40;94.40;98173.25;4974367;28;20719;-68
2022/04/14 04:01:32;;;;;;;10.03;5.93;;;;;;;10.31;93.75;98169.22;4974579;28;20690;-68
2022/04/14 04:03:58;;;;;;;10.50;6.10;;;;;;;10.31;93.94;98174.53;4975182;28;20212;-68
2022/04/14 04:06:24;;;;;;;8.83;6.10;;;;;;;10.26;94.59;98179.66;4974467;28;20215;-68
2022/04/14 04:08:51;;;;;;;9.57;5.77;;;;;;;10.30;94.05;98178.22;4974619;28;20204;-68
2022/04/14 04:11:17;;;;;;;9.30;6.07;;;;;;;10.32;94.47;98176.97;4974917;28;20208;-68
2022/04/14 04:13:43;;;;;;;9.90;5.63;;;;;;;10.24;94.52;98177.25;4975033;28;20232;-67
2022/04/14 04:16:10;;;;;;;7.97;5.17;;;;;;;10.28;94.62;98183.75;4974591;28;20218;-68
2022/04/14 04:18:37;;;;;;;12.10;6.17;;;;;;;10.22;94.80;98184.59;4974205;28;20231;-68
2022/04/14 04:21:04;;;;;;;8.10;5.87;;;;;;;10.18;94.71;98187.91;4974195;28;20204;-68
2022/04/14 04:23:30;;;;;;;7.77;5.73;;;;;;;10.19;94.65;98193.00;4974316;28;20212;-68
2022/04/14 04:25:56;;;;;;;9.43;5.93;;;;;;;10.12;95.49;98189.56;4974346;28;20253;-67
2022/04/14 04:28:30;;;;;;;7.17;6.20;;;;;;;10.19;95.12;98186.88;4974285;28;20228;-68
2022/04/14 04:30:57;;;;;;;11.17;6.07;;;;;;;10.18;95.16;98193.22;4974031;28;20227;-68
2022/04/14 04:33:23;;;;;;;8.87;5.47;;;;;;;10.18;95.33;98202.00;4974307;28;20210;-68
2022/04/14 04:35:53;;;;;;;12.17;6.03;;;;;;;10.14;95.74;98198.13;4974102;28;20575;-67
2022/04/14 04:38:20;;;;;;;8.87;5.67;;;;;;;10.09;95.91;98202.47;4976101;28;20236;-67
2022/04/14 04:40:47;;;;;;;8.40;6.00;;;;;;;10.08;96.19;98206.13;4977930;28;20220;-68
2022/04/14 04:43:15;;;;;;;11.30;6.00;;;;;;;10.11;95.43;98203.06;4977877;28;20231;-68
2022/04/14 04:45:42;;;;;;;8.70;5.53;;;;;;;10.12;95.45;98204.69;4977854;28;20208;-67
2022/04/14 04:48:09;;;;;;;8.43;6.27;;;;;;;10.17;95.47;98212.84;4977395;28;20238;-68
2022/04/14 04:50:35;;;;;;;8.10;6.03;;;;;;;10.19;94.97;98210.78;4978496;28;20219;-68
2022/04/14 04:53:01;;;;;;;12.37;6.70;;;;;;;10.20;95.64;98212.41;4977884;28;20292;-68
2022/04/14 04:55:28;;;;;;;10.33;6.60;;;;;;;10.23;95.16;98207.47;4977853;28;20216;-68
2022/04/14 04:57:55;;;;;;;13.30;7.07;;;;;;;10.22;95.34;98213.00;4977678;28;20239;-68
2022/04/14 05:00:21;;;;;;;15.77;6.70;;;;;;;10.21;95.44;98214.03;4977631;28;20223;-68
2022/04/14 05:02:48;;;;;;;12.33;6.90;;;;;;;10.22;95.30;98219.16;4977121;28;20670;-67
2022/04/14 05:05:14;;;;;;;10.53;6.20;;;;;;;10.31;94.50;98219.69;4977549;28;20215;-68
2022/04/14 05:07:40;;;;;;;15.70;6.93;;;;;;;10.36;93.44;98226.00;4977216;28;20278;-68
2022/04/14 05:10:07;;;;;;;10.77;6.63;;;;;;;10.40;93.43;98234.38;4978044;28;20211;-68
2022/04/14 05:12:34;;;;;;;13.20;6.90;;;;;;;10.47;93.77;98232.50;4977238;28;20204;-67
2022/04/14 05:15:01;;;;;;;8.37;6.50;;;;;;;10.49;93.80;98236.56;4976639;28;20694;-67
2022/04/14 05:17:27;;;;;;;12.17;6.90;;;;;;;10.54;93.51;98236.75;4977525;28;20567;-68
2022/04/14 05:19:54;;;;;;;12.07;6.73;;;;;;;10.59;93.08;98236.13;4977157;28;20208;-68
2022/04/14 05:22:20;;;;;;;13.70;6.83;;;;;;;10.65;93.44;98244.06;4977060;28;20234;-68
2022/04/14 05:24:46;;;;;;;10.13;6.37;;;;;;;10.72;92.84;98236.00;4977120;28;20208;-67
2022/04/14 05:27:13;;;;;;;8.83;5.93;;;;;;;10.76;92.52;98245.19;4976661;28;20235;-67
2022/04/14 05:29:39;;;;;;;12.93;6.03;;;;;;;10.84;91.98;98250.25;4977106;28;20211;-67
2022/04/14 05:32:06;;;;;;;13.10;6.23;;;;;;;10.87;92.09;98250.63;4976783;28;20212;-68
2022/04/14 05:34:32;;;;;;;10.57;6.07;;;;;;;11.02;91.19;98248.47;4977091;28;20207;-68
2022/04/14 05:36:59;;;;;;;10.23;6.57;;;;;;;11.05;91.18;98260.53;4976700;28;20228;-68
2022/04/14 05:39:25;;;;;;;13.40;6.87;;;;;;;11.13;91.00;98253.09;4976719;28;20242;-67
2022/04/14 05:41:51;;;;;;;12.40;6.90;;;;;;;11.19;90.91;98251.41;4976447;28;20307;-68
2022/04/14 05:44:19;;;;;;;10.80;6.60;;;;;;;11.25;90.54;98250.53;4977091;28;20223;-67
2022/04/14 05:46:45;;;;;;;12.23;6.70;;;;;;;11.41;89.33;98262.47;4976686;28;20299;-68
2022/04/14 05:49:11;;;;;;;15.40;7.43;;;;;;;11.59;88.05;98257.19;4975655;28;20213;-68
2022/04/14 05:51:38;;;;;;;12.80;7.23;;;;;;;11.58;88.22;98266.19;4976482;28;20224;-67
2022/04/14 05:54:04;;;;;;;13.83;7.47;;;;;;;11.65;87.93;98266.97;4976465;28;20213;-68
2022/04/14 05:56:30;;;;;;;10.43;7.73;;;;;;;11.64;87.38;98263.50;4976423;28;20208;-68
2022/04/14 05:58:57;;;;;;;10.07;7.10;;;;;;;11.66;88.84;98260.63;4976272;28;20322;-67
2022/04/14 06:01:25;;;;;;;10.60;7.33;;;;;;;11.63;89.41;98266.38;4976608;28;20215;-68
2022/04/14 06:03:51;;;;;;;12.87;7.80;;;;;;;11.87;86.73;98271.66;4976184;28;20679;-68
2022/04/14 06:06:18;;;;;;;18.23;8.57;;;;;;;11.81;88.17;98269.06;4976280;28;20680;-67
2022/04/14 06:08:45;;;;;;;15.73;9.70;;;;;;;11.90;88.91;98270.41;4975836;28;20235;-68
2022/04/14 06:11:11;;;;;;;21.70;15.67;;;;;;;12.17;90.89;98271.72;4976199;28;20249;-68
2022/04/14 06:13:38;;;;;;;33.53;26.90;;;;;;;12.53;94.62;98272.47;4975660;28;20683;-67
2022/04/14 06:16:05;;;;;;;33.67;26.57;;;;;;;12.90;93.32;98276.69;4976274;28;20209;-68
2022/04/14 06:18:31;;;;;;;31.90;27.47;;;;;;;12.90;93.51;98283.84;4975640;28;20236;-68
2022/04/14 06:20:58;;;;;;;33.50;27.17;;;;;;;13.00;93.25;98281.47;4975401;28;20673;-67
2022/04/14 06:23:24;;;;;;;31.53;25.53;;;;;;;13.18;92.68;98276.88;4975482;28;20208;-67
2022/04/14 06:25:50;;;;;;;28.40;25.10;;;;;;;13.15;92.41;98274.66;4975650;28;20222;-68
2022/04/14 06:28:18;;;;;;;33.63;26.67;;;;;;;13.21;92.13;98276.41;4975813;28;20237;-67
2022/04/14 06:30:47;;;;;;;29.90;25.77;;;;;;;13.27;91.98;98286.19;4975880;28;20618;-67
2022/04/14 06:33:15;;;;;;;27.60;24.63;;;;;;;13.43;92.33;98279.34;4975908;28;20221;-67
2022/04/14 06:35:42;;;;;;;28.70;23.80;;;;;;;13.42;91.46;98283.03;4975803;28;20325;-67
2022/04/14 06:38:08;;;;;;;25.20;22.40;;;;;;;13.49;90.43;98286.44;4975415;28;20580;-69
2022/04/14 06:40:41;;;;;;;26.00;23.27;;;;;;;13.44;90.85;98284.47;4975957;28;20585;-68
2022/04/14 06:43:08;;;;;;;28.13;24.37;;;;;;;13.54;91.41;98279.34;4974787;28;20210;-69
2022/04/14 06:45:37;;;;;;;27.63;22.23;;;;;;;13.70;90.23;98275.97;4975412;28;20204;-68
2022/04/14 06:48:03;;;;;;;26.53;22.83;;;;;;;13.72;88.93;98279.25;4975503;28;20235;-68
2022/04/14 06:50:29;;;;;;;27.17;21.97;;;;;;;13.78;88.49;98288.97;4975817;28;20656;-68
2022/04/14 06:52:56;;;;;;;25.03;21.27;;;;;;;13.75;88.27;98288.66;4975428;28;20215;-69
2022/04/14 06:55:23;;;;;;;24.73;20.90;;;;;;;13.73;88.46;98286.19;4975368;28;20217;-68
2022/04/14 06:57:50;;;;;;;23.53;21.07;;;;;;;13.79;88.58;98289.81;4974751;28;20232;-68
2022/04/14 07:00:18;;;;;;;25.87;22.23;;;;;;;13.98;89.14;98291.28;4975054;28;20231;-69
2022/04/14 07:02:48;;;;;;;27.60;21.87;;;;;;;13.90;88.06;98294.31;4974402;28;20614;-68
2022/04/14 07:05:14;;;;;;;26.13;21.70;;;;;;;14.24;87.74;98290.81;4975109;28;20217;-69
2022/04/14 07:07:41;;;;;;;26.17;20.70;;;;;;;14.05;86.74;98298.13;4975235;28;20227;-69
2022/04/14 07:10:07;;;;;;;24.53;20.47;;;;;;;14.12;86.53;98290.00;4975344;28;20227;-68
2022/04/14 07:12:34;;;;;;;26.23;21.43;;;;;;;14.24;85.70;98299.63;4975045;28;20211;-68
2022/04/14 07:15:00;;;;;;;23.53;20.83;;;;;;;14.20;85.72;98300.34;4975011;28;20215;-69
2022/04/14 07:17:27;;;;;;;24.73;20.97;;;;;;;14.13;85.95;98303.13;4975053;28;20302;-68
2022/04/14 07:19:53;;;;;;;23.20;20.10;;;;;;;14.19;86.21;98301.34;4974910;28;20227;-69
2022/04/14 07:22:20;;;;;;;29.37;22.47;;;;;;;14.15;86.38;98305.56;4974799;28;20216;-69
2022/04/14 07:24:50;;;;;;;29.60;21.30;;;;;;;14.15;86.30;98306.38;4975068;28;20204;-69
2022/04/14 07:27:20;;;;;;;24.77;21.67;;;;;;;14.36;85.87;98310.31;4975055;28;20236;-69
2022/04/14 07:29:46;;;;;;;27.77;20.63;;;;;;;14.47;84.95;98304.13;4974789;28;20223;-69
2022/04/14 07:32:14;;;;;;;23.63;21.13;;;;;;;14.70;86.23;98301.38;4974751;28;20243;-69
2022/04/14 07:34:40;;;;;;;27.17;20.17;;;;;;;14.72;83.95;98302.75;4974700;28;20204;-69
2022/04/14 07:37:06;;;;;;;22.30;19.97;;;;;;;14.65;83.54;98306.63;4974749;28;20231;-68
2022/04/14 07:39:33;;;;;;;23.23;20.80;;;;;;;14.63;83.70;98316.75;4974704;28;20227;-69
2022/04/14 07:41:59;;;;;;;22.77;20.43;;;;;;;14.70;83.72;98312.06;4974532;28;20222;-69
2022/04/14 07:44:26;;;;;;;22.17;19.43;;;;;;;14.69;82.93;98316.59;4974842;28;20212;-68
2022/04/14 07:46:52;;;;;;;21.90;19.40;;;;;;;14.72;83.24;98321.50;4974601;28;20228;-68
2022/04/14 07:49:19;;;;;;;26.80;19.13;;;;;;;14.67;82.76;98328.59;4974368;28;20207;-69
2022/04/14 07:51:45;;;;;;;22.73;19.90;;;;;;;14.81;82.20;98328.09;4974340;28;20614;-68
2022/04/14 07:54:11;;;;;;;22.33;19.03;;;;;;;15.00;82.57;98339.41;4974122;28;20668;-69
2022/04/14 07:56:38;;;;;;;23.20;18.57;;;;;;;15.09;80.89;98327.25;4974200;28;20222;-70
2022/04/14 07:59:04;;;;;;;23.83;19.33;;;;;;;15.05;81.51;98337.63;4974202;28;20250;-69
2022/04/14 08:01:30;;;;;;;24.80;20.07;;;;;;;15.05;80.93;98332.28;4974352;28;20208;-69
2022/04/14 08:03:57;;;;;;;23.00;19.03;;;;;;;15.17;80.44;98337.56;4974604;28;20208;-69
2022/04/14 08:06:25;;;;;;;24.80;18.57;;;;;;;15.31;79.31;98336.22;4974539;28;20204;-68
2022/04/14 08:08:51;;;;;;;25.30;20.60;;;;;;;15.29;79.89;98336.44;4974091;28;20667;-69
2022/04/14 08:11:18;;;;;;;21.97;19.63;;;;;;;15.41;79.87;98345.28;4974570;28;20212;-68
2022/04/14 08:13:44;;;;;;;25.83;19.10;;;;;;;15.48;79.51;98345.94;4974039;28;20203;-69
2022/04/14 08:16:11;;;;;;;21.17;18.97;;;;;;;15.69;79.02;98345.19;4974397;28;20216;-69
2022/04/14 08:18:39;;;;;;;25.57;19.90;;;;;;;15.67;78.82;98343.81;4974303;28;20231;-69
2022/04/14 08:21:06;;;;;;;22.77;17.97;;;;;;;15.98;78.70;98337.88;4974468;28;20208;-69
2022/04/14 08:23:38;;;;;;;25.27;19.13;;;;;;;15.73;78.18;98337.47;4974342;28;20212;-69
2022/04/14 08:26:06;;;;;;;20.63;17.97;;;;;;;15.88;77.53;98340.41;4974353;28;20199;-69
2022/04/14 08:28:33;;;;;;;24.73;18.00;;;;;;;16.33;76.47;98349.88;4974187;28;20228;-69
2022/04/14 08:31:00;;;;;;;20.00;17.37;;;;;;;16.53;73.47;98331.41;4974203;28;20252;-68
2022/04/14 08:33:26;;;;;;;20.00;17.07;;;;;;;16.22;75.74;98337.41;4974253;28;20215;-69
2022/04/14 08:35:54;;;;;;;20.13;17.97;;;;;;;16.24;76.58;98345.22;4974385;28;20204;-69
2022/04/14 08:38:21;;;;;;;20.30;18.10;;;;;;;15.70;76.85;98335.28;4974189;28;20250;-69
2022/04/14 08:40:52;;;;;;;20.57;16.70;;;;;;;15.86;77.20;98343.31;4973722;28;20254;-69
2022/04/14 08:43:31;;;;;;;21.33;17.40;;;;;;;16.03;76.65;98341.44;4973718;28;20674;-69
2022/04/14 08:46:00;;;;;;;22.80;17.47;;;;;;;16.24;76.29;98337.97;4972981;28;20507;-68
2022/04/14 08:48:27;;;;;;;22.67;16.57;;;;;;;16.74;73.15;98344.00;4974124;28;20232;-69
2022/04/14 08:50:55;;;;;;;19.87;17.73;;;;;;;16.63;73.55;98344.94;4974182;28;20204;-68
2022/04/14 08:53:27;;;;;;;19.63;16.50;;;;;;;16.08;75.73;98336.13;4973639;28;20207;-69
2022/04/14 08:55:54;;;;;;;20.03;15.67;;;;;;;16.49;72.89;98338.34;4973702;28;20653;-69
2022/04/14 08:58:26;;;;;;;24.20;16.00;;;;;;;16.56;73.13;98341.63;4973180;28;20273;-68
2022/04/14 09:00:53;;;;;;;17.63;15.50;;;;;;;16.67;72.30;98346.06;4973602;28;20247;-69
2022/04/14 09:03:20;;;;;;;18.63;16.13;;;;;;;16.60;71.83;98347.31;4973653;28;20710;-69
2022/04/14 09:05:46;;;;;;;21.07;16.57;;;;;;;16.52;72.80;98356.59;4973421;28;20243;-69
2022/04/14 09:08:13;;;;;;;25.33;16.60;;;;;;;16.55;72.24;98350.75;4973519;28;20231;-69
2022/04/14 09:10:41;;;;;;;27.27;17.80;;;;;;;16.59;72.45;98349.19;4973981;28;20211;-69
2022/04/14 09:13:07;;;;;;;22.00;16.87;;;;;;;16.42;72.44;98340.38;4972865;28;20212;-68
2022/04/14 09:15:33;;;;;;;20.93;17.03;;;;;;;16.23;72.74;98344.38;4973907;28;20203;-69
2022/04/14 09:18:00;;;;;;;19.60;16.37;;;;;;;16.43;74.16;98336.66;4973744;28;20231;-69
2022/04/14 09:20:37;;;;;;;20.40;16.57;;;;;;;16.62;70.58;98348.69;4973482;28;20224;-67
2022/04/14 09:23:25;;;;;;;19.73;16.70;;;;;;;16.94;70.71;98346.09;4973555;28;20291;-68
2022/04/14 09:26:11;;;;;;;20.17;15.77;;;;;;;17.13;72.24;98350.06;4976513;28;20247;-67
2022/04/14 09:28:38;;;;;;;19.20;14.97;;;;;;;16.75;70.15;98348.31;4976700;28;20703;-67
2022/04/14 09:31:12;;;;;;;19.87;16.43;;;;;;;16.79;70.29;98349.41;4976706;28;20208;-68
2022/04/14 09:33:49;;;;;;;17.83;15.97;;;;;;;16.98;70.25;98353.41;4976965;28;20266;-68
2022/04/14 09:36:20;;;;;;;17.80;16.00;;;;;;;16.91;69.52;98358.16;4977111;28;20591;-68
2022/04/14 09:38:58;;;;;;;17.07;14.90;;;;;;;17.32;67.95;98354.81;4976971;28;20190;-68
2022/04/14 09:41:39;;;;;;;22.30;16.00;;;;;;;17.07;67.83;98349.22;4976645;28;20596;-67
2022/04/14 09:44:13;;;;;;;16.80;14.77;;;;;;;17.22;67.19;98359.28;4976992;28;20192;-67
2022/04/14 09:46:43;;;;;;;18.27;15.53;;;;;;;17.25;68.45;98350.72;4976897;28;20195;-67
2022/04/14 09:49:17;;;;;;;17.43;15.60;;;;;;;17.58;68.59;98351.34;4976568;28;20192;-67
2022/04/14 09:51:45;;;;;;;19.40;15.63;;;;;;;17.92;64.34;98349.19;4976176;28;20192;-68
2022/04/14 09:54:14;;;;;;;18.43;15.23;;;;;;;17.58;66.29;98348.66;4976352;28;20679;-68
2022/04/14 09:56:44;;;;;;;18.30;14.97;;;;;;;17.68;67.85;98339.84;4976286;28;20267;-68
2022/04/14 09:59:12;;;;;;;17.47;14.20;;;;;;;18.05;62.36;98343.34;4975829;28;20721;-68
2022/04/14 10:01:38;;;;;;;16.10;14.40;;;;;;;17.82;63.89;98343.75;4976420;28;20208;-68
2022/04/14 10:04:05;;;;;;;20.50;15.77;;;;;;;18.10;64.23;98343.38;4975803;28;20675;-68
2022/04/14 10:06:32;;;;;;;18.13;15.60;;;;;;;18.24;64.19;98339.94;4976334;28;20218;-68
2022/04/14 10:08:58;;;;;;;17.73;14.63;;;;;;;18.06;63.42;98343.06;4975851;28;20298;-68
2022/04/14 10:11:27;;;;;;;18.33;15.13;;;;;;;18.11;64.21;98332.38;4976275;28;20292;-68
2022/04/14 10:13:54;;;;;;;18.27;14.73;;;;;;;17.90;65.39;98325.22;4976087;28;20299;-68
2022/04/14 10:16:23;;;;;;;17.20;15.40;;;;;;;17.57;63.69;98330.91;4976082;28;20214;-69
2022/04/14 10:18:52;;;;;;;17.20;14.43;;;;;;;17.85;65.43;98330.56;4976072;28;20303;-69
2022/04/14 10:21:20;;;;;;;16.67;14.50;;;;;;;18.17;63.01;98330.50;4976655;28;20222;-68
2022/04/14 10:23:47;;;;;;;16.13;12.93;;;;;;;18.51;62.18;98334.50;4958595;28;20243;-68
2022/04/14 10:26:14;;;;;;;19.07;15.07;;;;;;;17.89;64.12;98322.78;4974220;28;20226;-68
2022/04/14 10:28:41;;;;;;;15.57;13.53;;;;;;;18.05;62.89;98332.59;4973886;28;20715;-68
2022/04/14 10:31:08;;;;;;;15.63;13.60;;;;;;;18.27;62.62;98331.38;4973672;28;20556;-68
2022/04/14 10:33:36;;;;;;;21.90;14.73;;;;;;;18.16;61.92;98335.09;4957596;28;20209;-69
2022/04/14 10:36:02;;;;;;;16.47;13.77;;;;;;;18.95;60.77;98335.75;4954574;28;20209;-69
2022/04/14 10:38:31;;;;;;;16.70;13.83;;;;;;;18.64;60.53;98326.72;4956521;29;20233;-68
2022/04/14 10:41:12;;;;;;;19.63;14.47;;;;;;;18.83;60.48;98335.94;4956194;28;20225;-68
2022/04/14 10:43:42;;;;;;;21.90;12.77;;;;;;;18.90;58.81;98339.22;4956317;29;20213;-68
2022/04/14 10:46:08;;;;;;;17.10;13.07;;;;;;;18.89;60.71;98332.22;4956410;29;20224;-69
2022/04/14 10:48:39;;;;;;;16.00;12.97;;;;;;;19.07;61.04;98323.63;4956258;28;20239;-68
2022/04/14 10:51:24;;;;;;;19.47;13.17;;;;;;;19.21;62.26;98324.72;4956131;28;20694;-68
2022/04/14 10:54:05;;;;;;;17.70;14.93;;;;;;;19.48;60.24;98321.81;4956243;29;20192;-68
2022/04/14 10:56:40;;;;;;;17.27;13.63;;;;;;;19.49;59.60;98315.34;4956204;28;20208;-68
2022/04/14 10:59:15;;;;;;;14.40;12.90;;;;;;;19.34;58.56;98320.72;4955663;28;20220;-68
2022/04/14 11:01:47;;;;;;;17.47;13.33;;;;;;;19.36;59.13;98322.06;4955993;29;20197;-68
2022/04/14 11:04:32;;;;;;;19.67;14.07;;;;;;;19.28;59.10;98321.81;4955644;29;20680;-68
2022/04/14 11:07:03;;;;;;;15.17;13.57;;;;;;;19.18;60.07;98332.56;4955792;28;20232;-68
2022/04/14 11:09:49;;;;;;;21.03;14.57;;;;;;;19.58;60.47;98327.22;4954638;29;20311;-68
2022/04/14 11:12:20;;;;;;;21.77;14.83;;;;;;;19.67;59.62;98321.00;4955753;29;20213;-68
2022/04/14 11:14:53;;;;;;;16.33;14.63;;;;;;;19.86;57.46;98323.16;4955418;28;20288;-67
2022/04/14 11:17:32;;;;;;;17.57;13.63;;;;;;;19.72;58.61;98331.00;4955148;29;20609;-68
2022/04/14 11:20:20;;;;;;;19.23;15.30;;;;;;;19.78;58.81;98330.72;4955310;29;20223;-69
2022/04/14 11:23:13;;;;;;;17.17;15.37;;;;;;;19.73;57.63;98326.41;4955606;29;20204;-68
2022/04/14 11:25:39;;;;;;;16.93;14.77;;;;;;;19.55;58.50;98328.56;4955685;29;20205;-68
2022/04/14 11:28:24;;;;;;;17.00;15.13;;;;;;;19.49;58.58;98337.72;4955658;29;20240;-69